createdAt,value
2023-02-28T00:01:30.216Z,101593.56
2023-02-28T00:03:58.420Z,101591.50
2023-02-28T00:06:26.396Z,101597.50
2023-02-28T00:08:54.486Z,101596.19
2023-02-28T00:11:22.655Z,101608.56
2023-02-28T00:13:50.669Z,101606.53
2023-02-28T00:16:21.887Z,101609.13
2023-02-28T00:18:50.275Z,101616.56
2023-02-28T00:21:19.842Z,101619.50
2023-02-28T00:23:47.787Z,101621.25
2023-02-28T00:26:16.220Z,101617.66
2023-02-28T00:28:46.912Z,101623.94
2023-02-28T00:31:15.574Z,101629.09
2023-02-28T00:33:44.033Z,101624.19
2023-02-28T00:36:12.738Z,101627.78
2023-02-28T00:38:41.798Z,101631.03
2023-02-28T00:41:09.918Z,101628.38
2023-02-28T00:43:38.983Z,101631.75
2023-02-28T00:46:07.681Z,101632.13
2023-02-28T00:48:36.538Z,101639.19
2023-02-28T00:51:05.078Z,101638.75
2023-02-28T00:53:34.171Z,101641.44
2023-02-28T00:56:03.070Z,101641.66
2023-02-28T00:58:30.643Z,101633.53
2023-02-28T01:00:59.323Z,101645.81
2023-02-28T01:03:27.053Z,101643.94
2023-02-28T01:05:55.394Z,101643.53
2023-02-28T01:08:23.424Z,101645.56
2023-02-28T01:10:52.568Z,101648.59
2023-02-28T01:13:21.440Z,101651.22
2023-02-28T01:15:56.260Z,101647.00
2023-02-28T01:18:25.507Z,101654.47
2023-02-28T01:20:53.644Z,101651.22
2023-02-28T01:23:25.505Z,101655.75
2023-02-28T01:25:54.272Z,101645.34
2023-02-28T01:28:22.519Z,101644.63
2023-02-28T01:30:52.800Z,101640.88
2023-02-28T01:33:20.935Z,101645.44
2023-02-28T01:35:48.673Z,101649.75
2023-02-28T01:38:22.479Z,101637.06
2023-02-28T01:40:51.618Z,101651.44
2023-02-28T01:43:31.982Z,101655.63
2023-02-28T01:46:00.673Z,101642.50
2023-02-28T01:48:36.661Z,101637.88
2023-02-28T01:51:11.236Z,101641.09
2023-02-28T01:53:47.321Z,101638.09
2023-02-28T01:56:21.650Z,101644.88
2023-02-28T01:58:53.006Z,101644.41
2023-02-28T02:01:27.164Z,101641.00
2023-02-28T02:03:59.047Z,101638.47
2023-02-28T02:06:35.640Z,101638.31
2023-02-28T02:09:04.036Z,101633.91
2023-02-28T02:11:32.038Z,101634.56
2023-02-28T02:14:18.469Z,101636.06
2023-02-28T02:17:17.486Z,101641.88
2023-02-28T02:20:17.765Z,101629.72
2023-02-28T02:23:19.999Z,101633.91
2023-02-28T02:25:51.040Z,101635.06
2023-02-28T02:28:37.274Z,101630.41
2023-02-28T02:31:49.406Z,101625.72
2023-02-28T02:34:29.206Z,101626.16
2023-02-28T02:37:18.946Z,101624.81
2023-02-28T02:40:12.437Z,101623.38
2023-02-28T02:42:43.779Z,101624.69
2023-02-28T02:45:18.602Z,101625.94
2023-02-28T02:47:46.832Z,101630.22
2023-02-28T02:50:20.907Z,101625.50
2023-02-28T02:52:56.653Z,101624.81
2023-02-28T02:55:25.253Z,101627.06
2023-02-28T02:57:59.733Z,101624.19
2023-02-28T03:00:34.637Z,101621.50
2023-02-28T03:03:07.082Z,101624.44
2023-02-28T03:05:45.667Z,101622.38
2023-02-28T03:08:15.570Z,101629.16
2023-02-28T03:10:47.252Z,101624.66
2023-02-28T03:13:21.592Z,101626.16
2023-02-28T03:15:58.259Z,101621.22
2023-02-28T03:18:38.656Z,101628.25
2023-02-28T03:21:26.754Z,101624.72
2023-02-28T03:23:54.368Z,101615.19
2023-02-28T03:26:24.778Z,101629.34
2023-02-28T03:28:57.961Z,101623.88
2023-02-28T03:31:44.842Z,101628.13
2023-02-28T03:34:23.718Z,101627.75
2023-02-28T03:37:00.396Z,101622.84
2023-02-28T03:39:44.368Z,101626.91
2023-02-28T03:42:23.776Z,101625.16
2023-02-28T03:45:10.604Z,101630.81
2023-02-28T03:47:42.279Z,101627.19
2023-02-28T03:50:32.546Z,101638.06
2023-02-28T03:53:05.994Z,101635.81
2023-02-28T03:55:39.692Z,101633.28
2023-02-28T03:58:31.755Z,101635.56
2023-02-28T04:01:09.837Z,101631.88
2023-02-28T04:03:40.767Z,101642.66
2023-02-28T04:06:17.109Z,101646.06
2023-02-28T04:08:45.177Z,101649.44
2023-02-28T04:11:18.355Z,101657.97
2023-02-28T04:13:47.688Z,101651.97
2023-02-28T04:16:32.103Z,101657.03
2023-02-28T04:19:03.927Z,101651.50
2023-02-28T04:21:35.244Z,101660.75
2023-02-28T04:24:04.717Z,101668.28
2023-02-28T04:26:37.606Z,101663.34
2023-02-28T04:29:06.800Z,101666.91
2023-02-28T04:31:35.699Z,101661.72
2023-02-28T04:34:04.312Z,101668.56
2023-02-28T04:36:32.362Z,101673.81
2023-02-28T04:38:59.937Z,101661.72
2023-02-28T04:41:30.214Z,101668.53
2023-02-28T04:44:00.186Z,101664.03
2023-02-28T04:46:27.799Z,101665.91
2023-02-28T04:48:55.577Z,101667.69
2023-02-28T04:51:23.552Z,101663.63
2023-02-28T04:53:51.140Z,101664.50
2023-02-28T04:56:19.130Z,101666.84
2023-02-28T04:58:47.516Z,101668.66
2023-02-28T05:01:25.347Z,101670.63
2023-02-28T05:03:55.319Z,101672.28
2023-02-28T05:06:25.554Z,101669.25
2023-02-28T05:08:54.284Z,101671.06
2023-02-28T05:11:35.921Z,101669.66
2023-02-28T05:14:07.038Z,101658.84
2023-02-28T05:16:35.021Z,101667.19
2023-02-28T05:19:03.643Z,101657.19
2023-02-28T05:21:36.801Z,101661.84
2023-02-28T05:24:13.100Z,101666.91
2023-02-28T05:26:43.734Z,101662.59
2023-02-28T05:29:11.858Z,101666.56
2023-02-28T05:31:39.918Z,101670.84
2023-02-28T05:34:07.793Z,101668.94
2023-02-28T05:36:38.652Z,101661.72
2023-02-28T05:39:08.310Z,101666.28
2023-02-28T05:41:36.300Z,101666.19
2023-02-28T05:44:04.244Z,101669.72
2023-02-28T05:46:32.202Z,101665.50
2023-02-28T05:49:01.287Z,101665.69
2023-02-28T05:51:29.327Z,101667.44
2023-02-28T05:54:01.506Z,101659.03
2023-02-28T05:56:29.365Z,101665.13
2023-02-28T05:58:57.079Z,101662.50
2023-02-28T06:01:26.966Z,101671.84
2023-02-28T06:03:55.524Z,101671.97
2023-02-28T06:06:23.527Z,101671.47
2023-02-28T06:08:51.732Z,101681.84
2023-02-28T06:11:20.953Z,101676.78
2023-02-28T06:13:48.711Z,101676.78
2023-02-28T06:16:16.721Z,101694.78
2023-02-28T06:18:44.746Z,101688.75
2023-02-28T06:21:14.031Z,101689.41
2023-02-28T06:23:41.729Z,101694.03
2023-02-28T06:26:09.304Z,101697.13
2023-02-28T06:28:37.007Z,101693.13
2023-02-28T06:31:14.211Z,101700.97
2023-02-28T06:33:42.358Z,101703.94
2023-02-28T06:36:12.244Z,101700.66
2023-02-28T06:38:42.017Z,101705.06
2023-02-28T06:41:10.108Z,101697.84
2023-02-28T06:43:41.699Z,101703.59
2023-02-28T06:46:14.581Z,101704.75
2023-02-28T06:48:45.703Z,101711.19
2023-02-28T06:51:18.724Z,101719.81
2023-02-28T06:53:47.141Z,101721.31
2023-02-28T06:56:16.867Z,101719.34
2023-02-28T06:58:49.749Z,101728.50
2023-02-28T07:01:18.622Z,101718.69
2023-02-28T07:03:47.998Z,101719.81
2023-02-28T07:06:18.783Z,101726.28
2023-02-28T07:08:46.546Z,101720.06
2023-02-28T07:11:15.169Z,101719.94
2023-02-28T07:13:42.930Z,101724.38
2023-02-28T07:16:12.528Z,101715.53
2023-02-28T07:18:40.260Z,101723.41
2023-02-28T07:21:10.660Z,101718.16
2023-02-28T07:23:39.483Z,101721.31
2023-02-28T07:26:09.165Z,101716.53
2023-02-28T07:28:36.674Z,101717.03
2023-02-28T07:31:06.602Z,101722.31
2023-02-28T07:33:35.255Z,101727.00
2023-02-28T07:36:08.562Z,101726.13
2023-02-28T07:38:38.833Z,101721.13
2023-02-28T07:41:06.428Z,101721.69
2023-02-28T07:43:34.209Z,101721.00
2023-02-28T07:46:07.138Z,101719.66
2023-02-28T07:48:35.023Z,101718.19
2023-02-28T07:51:02.806Z,101717.16
2023-02-28T07:53:31.352Z,101726.78
2023-02-28T07:56:01.896Z,101721.97
2023-02-28T07:58:31.111Z,101729.28
2023-02-28T08:01:05.883Z,101722.19
2023-02-28T08:03:33.387Z,101718.91
2023-02-28T08:06:01.318Z,101715.22
2023-02-28T08:08:32.390Z,101729.66
2023-02-28T08:11:02.314Z,101726.53
2023-02-28T08:13:31.253Z,101725.75
2023-02-28T08:15:59.412Z,101725.19
2023-02-28T08:18:27.534Z,101732.59
2023-02-28T08:20:55.591Z,101724.75
2023-02-28T08:23:23.538Z,101730.97
2023-02-28T08:25:56.039Z,101725.22
2023-02-28T08:28:27.104Z,101730.34
2023-02-28T08:30:55.745Z,101736.72
2023-02-28T08:33:24.432Z,101738.72
2023-02-28T08:35:57.546Z,101735.78
2023-02-28T08:38:25.232Z,101741.47
2023-02-28T08:40:59.981Z,101743.19
2023-02-28T08:43:28.479Z,101739.44
2023-02-28T08:46:00.059Z,101739.19
2023-02-28T08:48:41.049Z,101734.53
2023-02-28T08:51:19.648Z,101732.72
2023-02-28T08:53:50.351Z,101738.34
2023-02-28T08:56:18.677Z,101727.63
2023-02-28T08:58:48.689Z,101727.81
2023-02-28T09:01:21.552Z,101723.81
2023-02-28T09:03:51.590Z,101730.09
2023-02-28T09:06:21.587Z,101727.81
2023-02-28T09:08:50.614Z,101730.69
2023-02-28T09:11:19.750Z,101739.91
2023-02-28T09:13:47.681Z,101734.75
2023-02-28T09:16:17.409Z,101743.03
2023-02-28T09:18:46.118Z,101735.50
2023-02-28T09:21:18.753Z,101731.03
2023-02-28T09:23:48.784Z,101736.50
2023-02-28T09:26:24.718Z,101737.94
2023-02-28T09:28:53.115Z,101731.03
2023-02-28T09:31:24.346Z,101727.66
2023-02-28T09:33:54.975Z,101738.06
2023-02-28T09:36:28.935Z,101735.44
2023-02-28T09:39:02.872Z,101735.31
2023-02-28T09:41:42.412Z,101727.63
2023-02-28T09:44:19.504Z,101730.28
2023-02-28T09:46:51.729Z,101726.00
2023-02-28T09:49:24.284Z,101727.31
2023-02-28T09:52:06.382Z,101728.97
2023-02-28T09:54:34.358Z,101725.06
2023-02-28T09:57:25.486Z,101723.47
2023-02-28T10:00:19.304Z,101720.59
2023-02-28T10:03:04.288Z,101721.78
2023-02-28T10:05:39.709Z,101731.25
2023-02-28T10:08:22.424Z,101717.59
2023-02-28T10:10:56.378Z,101715.94
2023-02-28T10:14:02.352Z,101723.22
2023-02-28T10:16:33.278Z,101724.13
2023-02-28T10:19:12.388Z,101726.38
2023-02-28T10:21:47.632Z,101712.69
2023-02-28T10:24:28.386Z,101717.03
2023-02-28T10:27:02.593Z,101722.84
2023-02-28T10:29:33.985Z,101715.03
2023-02-28T10:32:04.516Z,101711.84
2023-02-28T10:34:32.113Z,101711.47
2023-02-28T10:37:08.351Z,101713.03
2023-02-28T10:39:47.795Z,101705.22
2023-02-28T10:42:33.586Z,101708.56
2023-02-28T10:45:18.168Z,101705.84
2023-02-28T10:48:01.396Z,101707.75
2023-02-28T10:50:31.025Z,101700.97
2023-02-28T10:53:17.494Z,101697.59
2023-02-28T10:55:45.310Z,101685.31
2023-02-28T10:58:54.748Z,101679.44
2023-02-28T11:01:26.924Z,101676.06
2023-02-28T11:03:55.003Z,101691.16
2023-02-28T11:06:30.326Z,101684.50
2023-02-28T11:09:01.916Z,101684.44
2023-02-28T11:11:42.490Z,101677.56
2023-02-28T11:14:42.428Z,101669.75
2023-02-28T11:17:21.447Z,101667.06
2023-02-28T11:19:52.553Z,101662.69
2023-02-28T11:22:22.790Z,101658.34
2023-02-28T11:24:56.407Z,101659.88
2023-02-28T11:27:43.992Z,101653.50
2023-02-28T11:30:37.543Z,101653.56
2023-02-28T11:33:31.369Z,101650.28
2023-02-28T11:36:04.739Z,101642.06
2023-02-28T11:38:36.044Z,101636.19
2023-02-28T11:41:32.078Z,101636.03
2023-02-28T11:44:00.175Z,101622.53
2023-02-28T11:46:44.562Z,101622.56
2023-02-28T11:49:35.309Z,101630.59
2023-02-28T11:52:09.772Z,101629.19
2023-02-28T11:54:49.361Z,101622.94
2023-02-28T11:57:26.817Z,101616.06
2023-02-28T12:00:24.452Z,101609.19
2023-02-28T12:02:52.490Z,101599.94
2023-02-28T12:05:37.522Z,101605.75
2023-02-28T12:08:36.120Z,101601.75
2023-02-28T12:11:30.937Z,101591.19
2023-02-28T12:14:26.621Z,101589.63
2023-02-28T12:17:13.258Z,101578.84
2023-02-28T12:19:41.123Z,101588.25
2023-02-28T12:22:52.794Z,101576.44
2023-02-28T12:25:45.775Z,101578.13
2023-02-28T12:28:18.481Z,101566.25
2023-02-28T12:30:54.785Z,101561.78
2023-02-28T12:33:26.268Z,101559.47
2023-02-28T12:35:56.941Z,101564.94
2023-02-28T12:38:37.829Z,101559.34
2023-02-28T12:41:23.754Z,101557.31
2023-02-28T12:44:01.983Z,101549.84
2023-02-28T12:46:41.118Z,101553.97
2023-02-28T12:49:18.421Z,101542.31
2023-02-28T12:51:48.063Z,101539.19
2023-02-28T12:54:25.824Z,101532.59
2023-02-28T12:56:59.080Z,101531.69
2023-02-28T12:59:39.672Z,101535.47
2023-02-28T13:02:30.970Z,101530.22
2023-02-28T13:05:14.061Z,101528.97
2023-02-28T13:08:10.919Z,101526.56
2023-02-28T13:10:43.940Z,101522.06
2023-02-28T13:13:21.006Z,101519.13
2023-02-28T13:16:07.353Z,101515.00
2023-02-28T13:18:46.806Z,101509.34
2023-02-28T13:21:32.126Z,101500.66
2023-02-28T13:24:03.312Z,101492.59
2023-02-28T13:26:31.733Z,101509.78
2023-02-28T13:29:01.103Z,101500.84
2023-02-28T13:31:29.522Z,101505.66
2023-02-28T13:34:03.414Z,101502.09
2023-02-28T13:36:33.652Z,101496.06
2023-02-28T13:39:06.459Z,101496.09
2023-02-28T13:41:36.991Z,101495.03
2023-02-28T13:44:10.677Z,101496.50
2023-02-28T13:46:49.649Z,101485.38
2023-02-28T13:49:21.286Z,101488.53
2023-02-28T13:51:52.068Z,101474.63
2023-02-28T13:54:36.844Z,101477.66
2023-02-28T13:57:13.997Z,101484.72
2023-02-28T13:59:53.426Z,101471.25
2023-02-28T14:02:45.952Z,101473.41
2023-02-28T14:05:18.424Z,101476.38
2023-02-28T14:07:54.343Z,101473.47
2023-02-28T14:10:40.177Z,101469.34
2023-02-28T14:13:45.865Z,101455.06
2023-02-28T14:16:22.530Z,101467.09
2023-02-28T14:19:31.952Z,101461.31
2023-02-28T14:22:37.317Z,101458.72
2023-02-28T14:25:41.331Z,101453.53
2023-02-28T14:28:37.806Z,101458.00
2023-02-28T14:31:12.522Z,101449.41
2023-02-28T14:34:15.413Z,101456.31
2023-02-28T14:36:44.696Z,101456.19
2023-02-28T14:39:20.536Z,101452.72
2023-02-28T14:41:48.244Z,101442.31
2023-02-28T14:44:26.543Z,101440.50
2023-02-28T14:47:00.028Z,101447.19
2023-02-28T14:49:31.467Z,101435.63
2023-02-28T14:52:28.348Z,101433.97
2023-02-28T14:55:00.447Z,101433.97
2023-02-28T14:57:30.431Z,101435.59
2023-02-28T15:00:26.650Z,101435.31
2023-02-28T15:02:56.103Z,101438.00
2023-02-28T15:05:35.116Z,101435.00
2023-02-28T15:08:13.583Z,101431.94
2023-02-28T15:10:54.928Z,101439.44
2023-02-28T15:13:24.082Z,101434.91
2023-02-28T15:16:05.075Z,101435.19
2023-02-28T15:18:55.533Z,101433.31
2023-02-28T15:21:31.599Z,101433.91
2023-02-28T15:24:06.653Z,101430.13
2023-02-28T15:26:39.772Z,101432.00
2023-02-28T15:29:18.443Z,101423.47
2023-02-28T15:31:57.489Z,101426.66
2023-02-28T15:34:45.121Z,101425.59
2023-02-28T15:37:47.890Z,101435.81
2023-02-28T15:40:24.708Z,101431.56
2023-02-28T15:43:31.229Z,101432.13
2023-02-28T15:45:59.399Z,101443.69
2023-02-28T15:48:31.413Z,101435.19
2023-02-28T15:51:07.416Z,101444.78
2023-02-28T15:53:50.425Z,101441.44
2023-02-28T15:56:48.332Z,101439.97
2023-02-28T15:59:21.574Z,101444.31
2023-02-28T16:02:22.020Z,101450.16
2023-02-28T16:05:03.229Z,101440.13
2023-02-28T16:07:31.785Z,101444.28
2023-02-28T16:10:01.089Z,101449.53
2023-02-28T16:12:31.348Z,101447.91
2023-02-28T16:15:03.881Z,101444.84
2023-02-28T16:17:36.216Z,101450.34
2023-02-28T16:20:15.025Z,101451.00
2023-02-28T16:22:43.803Z,101444.59
2023-02-28T16:25:16.976Z,101452.00
2023-02-28T16:27:50.349Z,101449.75
2023-02-28T16:30:25.168Z,101445.59
2023-02-28T16:32:56.171Z,101452.38
2023-02-28T16:35:24.702Z,101447.13
2023-02-28T16:37:53.737Z,101449.81
2023-02-28T16:40:26.523Z,101453.91
2023-02-28T16:42:59.708Z,101453.13
2023-02-28T16:45:29.781Z,101453.50
2023-02-28T16:47:58.140Z,101454.13
2023-02-28T16:50:29.815Z,101448.59
2023-02-28T16:52:58.160Z,101449.09
2023-02-28T16:55:27.303Z,101451.03
2023-02-28T16:57:58.347Z,101449.44
2023-02-28T17:00:27.399Z,101455.28
2023-02-28T17:02:55.751Z,101456.47
2023-02-28T17:05:24.371Z,101454.84
2023-02-28T17:07:52.481Z,101456.97
2023-02-28T17:10:26.479Z,101454.72
2023-02-28T17:12:58.403Z,101465.69
2023-02-28T17:15:32.168Z,101466.50
2023-02-28T17:18:00.561Z,101459.69
2023-02-28T17:20:28.744Z,101461.03
2023-02-28T17:22:57.082Z,101473.38
2023-02-28T17:25:25.713Z,101478.88
2023-02-28T17:27:54.211Z,101480.28
2023-02-28T17:30:25.667Z,101474.75
2023-02-28T17:32:53.634Z,101482.22
2023-02-28T17:35:22.286Z,101481.84
2023-02-28T17:37:50.780Z,101484.22
2023-02-28T17:40:23.633Z,101485.72
2023-02-28T17:42:53.465Z,101486.47
2023-02-28T17:45:21.141Z,101502.41
2023-02-28T17:47:51.388Z,101503.72
2023-02-28T17:50:22.760Z,101502.63
2023-02-28T17:52:51.547Z,101501.41
2023-02-28T17:55:22.642Z,101503.47
2023-02-28T17:57:50.869Z,101502.50
2023-02-28T18:00:19.231Z,101506.94
2023-02-28T18:02:47.799Z,101506.06
2023-02-28T18:05:15.907Z,101511.72
2023-02-28T18:07:43.776Z,101513.28
2023-02-28T18:10:20.736Z,101519.06
2023-02-28T18:12:50.880Z,101514.25
2023-02-28T18:15:21.625Z,101518.34
2023-02-28T18:17:50.608Z,101518.22
2023-02-28T18:20:18.952Z,101523.44
2023-02-28T18:22:47.567Z,101522.00
2023-02-28T18:25:17.152Z,101519.56
2023-02-28T18:27:58.426Z,101515.88
2023-02-28T18:30:30.866Z,101522.81
2023-02-28T18:32:59.788Z,101519.81
2023-02-28T18:35:35.429Z,101524.81
2023-02-28T18:38:06.143Z,101528.47
2023-02-28T18:40:34.063Z,101527.19
2023-02-28T18:43:02.874Z,101528.50
2023-02-28T18:45:32.043Z,101526.25
2023-02-28T18:47:59.657Z,101538.41
2023-02-28T18:50:27.847Z,101537.34
2023-02-28T18:52:57.904Z,101541.50
2023-02-28T18:55:27.873Z,101538.38
2023-02-28T18:57:56.621Z,101552.50
2023-02-28T19:00:25.839Z,101554.91
2023-02-28T19:02:54.443Z,101549.34
2023-02-28T19:05:22.464Z,101544.97
2023-02-28T19:07:50.851Z,101555.31
2023-02-28T19:10:19.251Z,101555.88
2023-02-28T19:12:47.832Z,101551.66
2023-02-28T19:15:15.379Z,101555.19
2023-02-28T19:17:46.299Z,101549.97
2023-02-28T19:20:14.392Z,101546.25
2023-02-28T19:22:42.747Z,101558.03
2023-02-28T19:25:11.573Z,101554.81
2023-02-28T19:27:39.855Z,101557.47
2023-02-28T19:30:08.884Z,101557.56
2023-02-28T19:32:37.049Z,101560.94
2023-02-28T19:35:05.620Z,101565.59
2023-02-28T19:37:38.337Z,101569.47
2023-02-28T19:40:08.910Z,101559.78
2023-02-28T19:42:36.555Z,101565.88
2023-02-28T19:45:05.641Z,101562.41
2023-02-28T19:47:33.349Z,101553.59
2023-02-28T19:50:01.695Z,101559.63
2023-02-28T19:52:29.808Z,101558.72
2023-02-28T19:54:58.847Z,101557.59
2023-02-28T19:57:26.571Z,101557.19
2023-02-28T19:59:54.548Z,101551.78
2023-02-28T20:02:23.451Z,101558.34
2023-02-28T20:04:51.739Z,101554.16
2023-02-28T20:07:20.438Z,101559.63
2023-02-28T20:09:49.134Z,101557.38
2023-02-28T20:12:25.100Z,101551.97
2023-02-28T20:14:56.194Z,101562.97
2023-02-28T20:17:24.709Z,101554.38
2023-02-28T20:19:52.295Z,101544.50
2023-02-28T20:22:20.602Z,101539.97
2023-02-28T20:24:48.821Z,101530.69
2023-02-28T20:27:17.418Z,101529.47
2023-02-28T20:29:46.259Z,101532.25
2023-02-28T20:32:13.932Z,101533.69
2023-02-28T20:34:42.170Z,101537.94
2023-02-28T20:37:09.773Z,101542.22
2023-02-28T20:39:37.774Z,101540.63
2023-02-28T20:42:06.389Z,101533.84
2023-02-28T20:44:34.408Z,101538.53
2023-02-28T20:47:02.730Z,101541.16
2023-02-28T20:49:30.638Z,101548.06
2023-02-28T20:51:58.624Z,101535.53
2023-02-28T20:54:26.619Z,101536.03
2023-02-28T20:56:55.037Z,101537.19
2023-02-28T20:59:22.989Z,101541.97
2023-02-28T21:01:50.537Z,101549.13
2023-02-28T21:04:18.595Z,101552.47
2023-02-28T21:06:47.614Z,101547.53
2023-02-28T21:09:16.557Z,101546.16
2023-02-28T21:11:46.071Z,101551.47
2023-02-28T21:14:17.706Z,101542.56
2023-02-28T21:16:46.151Z,101542.06
2023-02-28T21:19:14.322Z,101545.72
2023-02-28T21:21:44.341Z,101548.97
2023-02-28T21:24:15.233Z,101540.00
2023-02-28T21:26:45.256Z,101541.97
2023-02-28T21:29:14.059Z,101541.53
2023-02-28T21:31:42.169Z,101548.41
2023-02-28T21:34:12.853Z,101548.41
2023-02-28T21:36:45.705Z,101549.81
2023-02-28T21:39:17.131Z,101551.63
2023-02-28T21:41:45.315Z,101545.59
2023-02-28T21:44:18.460Z,101551.31
2023-02-28T21:46:49.218Z,101552.22
2023-02-28T21:49:17.731Z,101550.94
2023-02-28T21:51:45.558Z,101549.44
2023-02-28T21:54:14.583Z,101551.75
2023-02-28T21:56:43.056Z,101544.38
2023-02-28T21:59:11.681Z,101544.66
2023-02-28T22:01:45.724Z,101557.19
2023-02-28T22:04:22.557Z,101548.28
2023-02-28T22:06:53.722Z,101540.59
2023-02-28T22:09:22.841Z,101541.25
2023-02-28T22:11:52.028Z,101540.06
2023-02-28T22:14:20.135Z,101534.88
2023-02-28T22:16:51.775Z,101532.94
2023-02-28T22:19:23.120Z,101537.63
2023-02-28T22:21:53.685Z,101536.50
2023-02-28T22:24:25.034Z,101536.50
2023-02-28T22:26:53.047Z,101539.69
2023-02-28T22:29:21.586Z,101537.75
2023-02-28T22:31:50.784Z,101526.38
2023-02-28T22:34:18.665Z,101527.75
2023-02-28T22:36:46.731Z,101514.25
2023-02-28T22:39:14.779Z,101513.19
2023-02-28T22:41:43.193Z,101520.69
2023-02-28T22:44:11.040Z,101527.25
2023-02-28T22:46:38.980Z,101535.19
2023-02-28T22:49:07.511Z,101536.72
2023-02-28T22:51:35.655Z,101542.19
2023-02-28T22:54:04.524Z,101535.81
2023-02-28T22:56:32.614Z,101538.44
2023-02-28T22:59:01.659Z,101536.56
2023-02-28T23:01:32.058Z,101543.47
2023-02-28T23:04:01.391Z,101533.56
2023-02-28T23:06:37.776Z,101529.59
2023-02-28T23:09:08.167Z,101528.53
2023-02-28T23:11:40.802Z,101525.91
2023-02-28T23:14:10.183Z,101513.53
2023-02-28T23:16:42.822Z,101514.91
2023-02-28T23:19:13.795Z,101521.97
2023-02-28T23:21:43.096Z,101520.31
2023-02-28T23:24:12.731Z,101517.34
2023-02-28T23:26:43.922Z,101521.59
2023-02-28T23:29:13.984Z,101514.91
2023-02-28T23:31:42.648Z,101509.44
2023-02-28T23:34:11.266Z,101512.44
2023-02-28T23:36:43.547Z,101510.84
2023-02-28T23:39:13.639Z,101510.03
2023-02-28T23:41:41.812Z,101500.41
2023-02-28T23:44:13.773Z,101511.63
2023-02-28T23:46:41.460Z,101499.97
2023-02-28T23:49:09.247Z,101503.13
2023-02-28T23:51:37.611Z,101497.25
2023-02-28T23:54:06.287Z,101499.88
2023-02-28T23:56:34.709Z,101494.53
2023-02-28T23:59:02.181Z,101495.31
